createdAt,value
2022-10-03T00:00:16.296Z,8.25
2022-10-03T00:03:46.105Z,8.24
2022-10-03T00:06:23.224Z,8.21
2022-10-03T00:08:57.619Z,8.19
2022-10-03T00:11:54.320Z,8.18
2022-10-03T00:14:40.630Z,8.19
2022-10-03T00:17:17.119Z,8.22
2022-10-03T00:20:03.036Z,8.26
2022-10-03T00:22:40.381Z,8.32
2022-10-03T00:25:45.814Z,8.39
2022-10-03T00:29:07.234Z,8.47
2022-10-03T00:31:53.982Z,8.53
2022-10-03T00:34:40.979Z,8.57
2022-10-03T00:37:32.077Z,8.60
2022-10-03T00:40:18.883Z,8.61
2022-10-03T00:42:55.815Z,8.62
2022-10-03T00:45:50.462Z,8.64
2022-10-03T00:49:03.017Z,8.68
2022-10-03T00:51:37.307Z,8.74
2022-10-03T00:54:18.575Z,8.80
2022-10-03T00:57:20.820Z,8.87
2022-10-03T00:59:57.867Z,8.94
2022-10-03T01:03:03.365Z,8.99
2022-10-03T01:05:49.924Z,9.06
2022-10-03T01:08:40.220Z,9.13
2022-10-03T01:11:37.861Z,9.17
2022-10-03T01:14:39.077Z,9.19
2022-10-03T01:18:05.623Z,9.17
2022-10-03T01:20:52.180Z,9.17
2022-10-03T01:23:29.243Z,9.15
2022-10-03T01:26:20.266Z,9.11
2022-10-03T01:29:22.149Z,9.10
2022-10-03T01:32:01.251Z,9.09
2022-10-03T01:35:15.585Z,9.13
2022-10-03T01:38:09.293Z,9.18
2022-10-03T01:41:00.006Z,9.24
2022-10-03T01:44:00.786Z,9.28
2022-10-03T01:47:10.953Z,9.23
2022-10-03T01:49:46.962Z,9.17
2022-10-03T01:52:53.757Z,9.18
2022-10-03T01:55:44.865Z,9.21
2022-10-03T01:58:35.894Z,9.17
2022-10-03T02:01:20.716Z,9.14
2022-10-03T02:04:12.872Z,9.09
2022-10-03T02:07:05.909Z,9.08
2022-10-03T02:09:59.941Z,9.07
2022-10-03T02:12:40.847Z,9.07
2022-10-03T02:15:42.060Z,9.07
2022-10-03T02:18:39.264Z,9.07
2022-10-03T02:21:15.243Z,9.11
2022-10-03T02:23:46.136Z,9.17
2022-10-03T02:26:29.881Z,9.21
2022-10-03T02:29:22.416Z,9.27
2022-10-03T02:32:24.322Z,9.29
2022-10-03T02:35:10.652Z,9.30
2022-10-03T02:38:09.086Z,9.30
2022-10-03T02:41:01.658Z,9.29
2022-10-03T02:43:48.362Z,9.27
2022-10-03T02:46:50.434Z,9.26
2022-10-03T02:49:21.278Z,9.26
2022-10-03T02:51:52.288Z,9.26
2022-10-03T02:54:29.511Z,9.28
2022-10-03T02:57:19.948Z,9.30
2022-10-03T03:00:09.788Z,9.35
2022-10-03T03:03:05.708Z,9.40
2022-10-03T03:05:55.831Z,9.43
2022-10-03T03:08:35.972Z,9.44
2022-10-03T03:11:22.903Z,9.44
2022-10-03T03:14:18.945Z,9.43
2022-10-03T03:17:10.212Z,9.41
2022-10-03T03:19:56.962Z,9.42
2022-10-03T03:22:28.639Z,9.43
2022-10-03T03:25:20.121Z,9.33
2022-10-03T03:28:02.306Z,9.29
2022-10-03T03:31:11.608Z,9.34
2022-10-03T03:33:53.024Z,9.36
2022-10-03T03:36:41.885Z,9.37
2022-10-03T03:39:35.180Z,9.38
2022-10-03T03:42:05.919Z,9.40
2022-10-03T03:44:54.552Z,9.43
2022-10-03T03:47:47.823Z,9.45
2022-10-03T03:50:22.213Z,9.46
2022-10-03T03:53:14.878Z,9.45
2022-10-03T03:56:07.997Z,9.46
2022-10-03T03:58:35.879Z,9.45
2022-10-03T04:01:18.617Z,9.45
2022-10-03T04:04:02.234Z,9.44
2022-10-03T04:06:35.834Z,9.42
2022-10-03T04:09:10.129Z,9.41
2022-10-03T04:11:53.377Z,9.42
2022-10-03T04:14:46.612Z,9.43
2022-10-03T04:18:10.844Z,9.41
2022-10-03T04:20:56.085Z,9.40
2022-10-03T04:23:51.329Z,9.40
2022-10-03T04:26:53.366Z,9.35
2022-10-03T04:30:00.395Z,9.26
2022-10-03T04:33:07.099Z,9.23
2022-10-03T04:36:06.881Z,9.29
2022-10-03T04:39:04.564Z,9.32
2022-10-03T04:41:57.853Z,9.31
2022-10-03T04:44:55.421Z,9.29
2022-10-03T04:47:34.852Z,9.27
2022-10-03T04:50:12.881Z,9.26
2022-10-03T04:52:46.796Z,9.27
2022-10-03T04:55:46.956Z,9.31
2022-10-03T04:58:36.411Z,9.32
2022-10-03T05:01:28.451Z,9.34
2022-10-03T05:04:18.327Z,9.36
2022-10-03T05:07:16.783Z,9.40
2022-10-03T05:09:53.901Z,9.47
2022-10-03T05:12:40.605Z,9.49
2022-10-03T05:15:11.912Z,9.54
2022-10-03T05:17:59.098Z,9.59
2022-10-03T05:20:51.812Z,9.65
2022-10-03T05:23:46.138Z,9.74
2022-10-03T05:26:44.003Z,9.82
2022-10-03T05:29:32.409Z,9.92
2022-10-03T05:32:23.476Z,10.03
2022-10-03T05:34:54.445Z,10.13
2022-10-03T05:37:56.295Z,10.22
2022-10-03T05:40:27.376Z,10.32
2022-10-03T05:43:28.471Z,10.42
2022-10-03T05:46:06.848Z,10.52
2022-10-03T05:49:04.319Z,10.62
2022-10-03T05:51:42.433Z,10.68
2022-10-03T05:54:42.125Z,10.72
2022-10-03T05:57:41.659Z,10.76
2022-10-03T06:00:21.921Z,10.79
2022-10-03T06:03:14.625Z,10.81
2022-10-03T06:06:02.259Z,10.88
2022-10-03T06:08:51.440Z,10.98
2022-10-03T06:11:41.081Z,11.05
2022-10-03T06:14:43.629Z,11.09
2022-10-03T06:17:40.926Z,11.12
2022-10-03T06:20:55.283Z,11.12
2022-10-03T06:23:29.722Z,11.14
2022-10-03T06:26:23.695Z,11.12
2022-10-03T06:29:22.087Z,11.16
2022-10-03T06:32:18.761Z,11.16
2022-10-03T06:34:58.883Z,11.20
2022-10-03T06:38:10.145Z,11.29
2022-10-03T06:40:41.263Z,11.37
2022-10-03T06:43:47.440Z,11.43
2022-10-03T06:46:46.007Z,11.42
2022-10-03T06:49:45.501Z,11.40
2022-10-03T06:52:26.087Z,11.36
2022-10-03T06:55:31.769Z,11.31
2022-10-03T06:58:23.423Z,11.32
2022-10-03T07:01:29.609Z,11.51
2022-10-03T07:04:24.504Z,11.67
2022-10-03T07:07:40.554Z,11.87
2022-10-03T07:10:38.314Z,12.18
2022-10-03T07:13:12.868Z,12.48
2022-10-03T07:19:01.668Z,12.71
2022-10-03T07:22:21.658Z,12.79
2022-10-03T07:25:15.235Z,12.97
2022-10-03T07:27:58.819Z,13.11
2022-10-03T07:30:37.567Z,13.17
2022-10-03T07:33:21.194Z,12.94
2022-10-03T07:36:26.872Z,12.86
2022-10-03T07:39:28.778Z,12.79
2022-10-03T07:42:22.708Z,12.72
2022-10-03T07:45:23.267Z,12.75
2022-10-03T07:48:13.501Z,12.85
2022-10-03T07:51:09.242Z,13.04
2022-10-03T07:53:58.929Z,13.14
2022-10-03T07:56:56.890Z,13.29
2022-10-03T07:59:44.021Z,13.49
2022-10-03T08:02:36.750Z,13.41
2022-10-03T08:05:14.926Z,13.43
2022-10-03T08:08:11.203Z,13.29
2022-10-03T08:11:16.062Z,13.03
2022-10-03T08:13:44.455Z,13.09
2022-10-03T08:16:25.154Z,13.09
2022-10-03T08:19:24.552Z,13.10
2022-10-03T08:22:15.801Z,13.06
2022-10-03T08:25:15.164Z,13.13
2022-10-03T08:28:05.124Z,13.12
2022-10-03T08:30:54.783Z,13.17
2022-10-03T08:33:23.792Z,13.19
2022-10-03T08:36:10.501Z,13.31
2022-10-03T08:38:57.418Z,13.33
2022-10-03T08:41:41.552Z,13.25
2022-10-03T08:44:30.200Z,13.32
2022-10-03T08:47:26.649Z,13.35
2022-10-03T08:50:49.126Z,13.37
2022-10-03T08:53:54.366Z,13.51
2022-10-03T08:56:44.357Z,13.68
2022-10-03T08:59:51.682Z,13.82
2022-10-03T09:03:20.517Z,13.83
2022-10-03T09:06:26.516Z,13.75
2022-10-03T09:09:15.734Z,13.69
2022-10-03T09:11:49.904Z,13.67
2022-10-03T09:14:21.228Z,13.68
2022-10-03T09:17:10.124Z,13.83
2022-10-03T09:20:03.135Z,13.96
2022-10-03T09:22:56.358Z,14.06
2022-10-03T09:25:32.863Z,14.10
2022-10-03T09:28:04.106Z,14.09
2022-10-03T09:31:07.451Z,14.14
2022-10-03T09:34:00.492Z,14.28
2022-10-03T09:36:47.565Z,14.22
2022-10-03T09:39:19.019Z,14.43
2022-10-03T09:42:09.079Z,14.51
2022-10-03T09:44:44.143Z,14.51
2022-10-03T09:47:40.361Z,14.45
2022-10-03T09:50:36.726Z,14.39
2022-10-03T09:53:26.167Z,14.34
2022-10-03T09:56:35.397Z,14.40
2022-10-03T09:59:38.583Z,14.55
2022-10-03T10:02:28.577Z,14.54
2022-10-03T10:05:27.797Z,14.56
2022-10-03T10:08:05.600Z,14.45
2022-10-03T10:10:42.837Z,14.42
2022-10-03T10:14:06.266Z,14.47
2022-10-03T10:16:35.271Z,14.40
2022-10-03T10:19:23.909Z,14.46
2022-10-03T10:22:04.434Z,14.70
2022-10-03T10:25:06.696Z,14.80
2022-10-03T10:27:55.413Z,14.70
2022-10-03T10:30:47.038Z,14.44
2022-10-03T10:33:39.983Z,14.10
2022-10-03T10:36:32.462Z,13.94
2022-10-03T10:39:03.588Z,13.68
2022-10-03T10:41:41.035Z,13.64
2022-10-03T10:44:21.953Z,13.61
2022-10-03T10:47:15.587Z,13.46
2022-10-03T10:50:02.449Z,13.31
2022-10-03T10:52:48.885Z,13.33
2022-10-03T10:55:40.808Z,13.41
2022-10-03T10:58:36.546Z,13.60
2022-10-03T11:01:26.389Z,13.82
2022-10-03T11:04:13.563Z,13.93
2022-10-03T11:06:47.594Z,13.86
2022-10-03T11:09:34.247Z,13.80
2022-10-03T11:12:22.917Z,13.69
2022-10-03T11:15:12.958Z,13.61
2022-10-03T11:18:03.559Z,13.48
2022-10-03T11:20:40.999Z,13.44
2022-10-03T11:23:46.266Z,13.41
2022-10-03T11:26:26.312Z,13.45
2022-10-03T11:29:29.258Z,13.56
2022-10-03T11:32:24.221Z,13.75
2022-10-03T11:35:29.583Z,13.94
2022-10-03T11:38:24.811Z,14.22
2022-10-03T11:41:20.273Z,14.41
2022-10-03T11:44:13.951Z,14.54
2022-10-03T11:46:48.558Z,14.70
2022-10-03T11:49:34.807Z,14.83
2022-10-03T11:52:15.171Z,15.12
2022-10-03T11:54:47.589Z,15.41
2022-10-03T11:57:30.456Z,15.73
2022-10-03T12:00:15.906Z,15.98
2022-10-03T12:03:31.233Z,16.16
2022-10-03T12:06:28.521Z,16.23
2022-10-03T12:09:24.747Z,16.24
2022-10-03T12:12:09.759Z,16.11
2022-10-03T12:14:46.856Z,16.09
2022-10-03T12:17:32.069Z,16.00
2022-10-03T12:20:06.221Z,15.71
2022-10-03T12:22:37.278Z,15.60
2022-10-03T12:25:24.830Z,15.43
2022-10-03T12:27:59.262Z,14.72
2022-10-03T12:30:37.923Z,13.75
2022-10-03T12:33:29.948Z,13.13
2022-10-03T12:36:16.709Z,12.81
2022-10-03T12:38:55.509Z,12.42
2022-10-03T12:41:48.849Z,12.27
2022-10-03T12:44:30.023Z,12.26
2022-10-03T12:47:54.911Z,12.27
2022-10-03T12:50:59.991Z,12.31
2022-10-03T12:53:38.765Z,12.36
2022-10-03T12:56:31.379Z,12.43
2022-10-03T12:59:30.415Z,12.44
2022-10-03T13:02:18.398Z,12.34
2022-10-03T13:05:24.024Z,12.24
2022-10-03T13:08:00.740Z,12.14
2022-10-03T13:11:29.222Z,12.05
2022-10-03T13:14:00.411Z,11.97
2022-10-03T13:17:05.858Z,11.93
2022-10-03T13:19:59.625Z,11.92
2022-10-03T13:22:47.336Z,11.95
2022-10-03T13:25:23.065Z,11.96
2022-10-03T13:28:11.630Z,11.88
2022-10-03T13:31:01.636Z,11.60
2022-10-03T13:33:38.505Z,11.19
2022-10-03T13:36:36.020Z,10.97
2022-10-03T13:39:26.115Z,10.87
2022-10-03T13:42:10.742Z,10.73
2022-10-03T13:44:50.475Z,10.61
2022-10-03T13:47:43.689Z,10.52
2022-10-03T13:50:29.940Z,10.49
2022-10-03T13:53:06.134Z,10.51
2022-10-03T13:55:37.482Z,10.53
2022-10-03T13:58:21.965Z,10.54
2022-10-03T14:01:14.908Z,10.59
2022-10-03T14:04:29.377Z,10.68
2022-10-03T14:07:24.866Z,10.81
2022-10-03T14:10:16.625Z,10.91
2022-10-03T14:12:55.278Z,10.98
2022-10-03T14:15:33.151Z,11.11
2022-10-03T14:18:38.496Z,11.28
2022-10-03T14:21:27.261Z,11.44
2022-10-03T14:24:04.810Z,11.59
2022-10-03T14:27:00.074Z,11.74
2022-10-03T14:29:50.437Z,11.84
2022-10-03T14:32:48.107Z,11.97
2022-10-03T14:35:41.937Z,12.09
2022-10-03T14:38:22.392Z,12.18
2022-10-03T14:41:00.257Z,12.27
2022-10-03T14:43:50.748Z,12.33
2022-10-03T14:46:22.509Z,12.37
2022-10-03T14:48:59.356Z,12.37
2022-10-03T14:51:39.960Z,12.36
2022-10-03T14:54:17.706Z,12.32
2022-10-03T14:56:49.149Z,12.29
2022-10-03T14:59:30.086Z,12.27
2022-10-03T15:02:00.035Z,12.26
2022-10-03T15:04:42.041Z,12.21
2022-10-03T15:07:13.614Z,12.16
2022-10-03T15:09:50.819Z,12.08
2022-10-03T15:12:22.672Z,11.99
2022-10-03T15:15:02.577Z,11.92
2022-10-03T15:17:37.280Z,11.83
2022-10-03T15:20:08.107Z,11.78
2022-10-03T15:22:40.904Z,11.74
2022-10-03T15:25:18.093Z,11.69
2022-10-03T15:28:11.405Z,11.64
2022-10-03T15:30:41.778Z,11.57
2022-10-03T15:33:18.999Z,11.52
2022-10-03T15:35:53.536Z,11.45
2022-10-03T15:38:27.053Z,11.39
2022-10-03T15:41:16.891Z,11.34
2022-10-03T15:44:15.698Z,11.30
2022-10-03T15:46:48.039Z,11.25
2022-10-03T15:49:26.905Z,11.19
2022-10-03T15:51:57.488Z,11.12
2022-10-03T15:54:30.351Z,11.06
2022-10-03T15:57:00.550Z,11.00
2022-10-03T15:59:34.734Z,10.95
2022-10-03T16:02:16.391Z,10.90
2022-10-03T16:04:47.184Z,10.85
2022-10-03T16:07:51.185Z,10.81
2022-10-03T16:10:37.276Z,10.78
2022-10-03T16:13:29.185Z,10.87
2022-10-03T16:16:15.563Z,10.79
2022-10-03T16:18:57.856Z,10.50
2022-10-03T16:21:29.396Z,10.17
2022-10-03T16:24:00.530Z,9.86
2022-10-03T16:26:46.643Z,9.45
2022-10-03T16:29:29.055Z,9.20
2022-10-03T16:32:06.417Z,8.99
2022-10-03T16:34:37.178Z,8.80
2022-10-03T16:37:17.793Z,8.73
2022-10-03T16:39:54.257Z,8.70
2022-10-03T16:42:26.265Z,8.70
2022-10-03T16:44:59.721Z,8.71
2022-10-03T16:47:36.433Z,8.73
2022-10-03T16:50:25.168Z,8.72
2022-10-03T16:52:58.754Z,8.73
2022-10-03T16:55:37.405Z,8.73
2022-10-03T16:58:18.007Z,8.74
2022-10-03T17:04:19.750Z,8.71
2022-10-03T17:06:51.248Z,8.72
2022-10-03T17:09:40.103Z,8.76
2022-10-03T17:12:18.269Z,8.77
2022-10-03T17:14:49.314Z,8.77
2022-10-03T17:17:23.621Z,8.76
2022-10-03T17:20:00.854Z,8.77
2022-10-03T17:22:39.014Z,8.77
2022-10-03T17:25:34.045Z,8.78
2022-10-03T17:28:06.663Z,8.77
2022-10-03T17:30:43.238Z,8.75
2022-10-03T17:33:25.897Z,8.74
2022-10-03T17:35:58.827Z,8.73
2022-10-03T17:38:52.153Z,8.71
2022-10-03T17:41:44.211Z,8.72
2022-10-03T17:44:29.302Z,8.72
2022-10-03T17:47:17.928Z,8.73
2022-10-03T17:50:01.203Z,8.75
2022-10-03T17:52:30.889Z,8.77
2022-10-03T17:55:06.880Z,8.80
2022-10-03T17:57:52.678Z,8.82
2022-10-03T18:00:23.667Z,8.84
2022-10-03T18:03:13.636Z,8.85
2022-10-03T18:05:49.119Z,8.86
2022-10-03T18:08:23.683Z,8.87
2022-10-03T18:10:56.170Z,8.86
2022-10-03T18:13:43.152Z,8.82
2022-10-03T18:16:34.884Z,8.79
2022-10-03T18:19:32.425Z,8.72
2022-10-03T18:22:12.547Z,8.69
2022-10-03T18:24:52.180Z,8.71
2022-10-03T18:27:39.922Z,8.72
2022-10-03T18:30:16.965Z,8.74
2022-10-03T18:32:46.169Z,8.77
2022-10-03T18:35:27.034Z,8.80
2022-10-03T18:38:19.930Z,8.81
2022-10-03T18:40:54.393Z,8.80
2022-10-03T18:43:45.548Z,8.77
2022-10-03T18:46:27.850Z,8.73
2022-10-03T18:49:34.753Z,8.70
2022-10-03T18:52:14.499Z,8.63
2022-10-03T18:55:14.775Z,8.57
2022-10-03T18:57:54.655Z,8.52
2022-10-03T19:00:30.296Z,8.48
2022-10-03T19:03:13.766Z,8.44
2022-10-03T19:05:49.754Z,8.45
2022-10-03T19:08:42.446Z,8.46
2022-10-03T19:11:26.518Z,8.45
2022-10-03T19:14:23.589Z,8.44
2022-10-03T19:17:09.993Z,8.43
2022-10-03T19:19:59.517Z,8.42
2022-10-03T19:22:34.491Z,8.41
2022-10-03T19:25:05.963Z,8.40
2022-10-03T19:27:49.566Z,8.39
2022-10-03T19:30:24.660Z,8.37
2022-10-03T19:33:14.687Z,8.35
2022-10-03T19:35:48.681Z,8.32
2022-10-03T19:38:27.765Z,8.27
2022-10-03T19:41:05.365Z,8.24
2022-10-03T19:43:50.829Z,8.20
2022-10-03T19:46:48.247Z,8.14
2022-10-03T19:49:31.320Z,8.08
2022-10-03T19:52:17.791Z,8.03
2022-10-03T19:54:52.345Z,8.00
2022-10-03T19:57:30.377Z,7.98
2022-10-03T20:00:07.255Z,7.97
2022-10-03T20:02:40.170Z,7.95
2022-10-03T20:05:08.542Z,7.94
2022-10-03T20:07:36.536Z,7.94
2022-10-03T20:10:14.538Z,7.95
2022-10-03T20:12:49.680Z,7.94
2022-10-03T20:15:24.795Z,7.95
2022-10-03T20:18:02.725Z,7.93
2022-10-03T20:20:33.297Z,7.93
2022-10-03T20:23:07.159Z,7.94
2022-10-03T20:25:43.447Z,7.91
2022-10-03T20:28:27.323Z,7.89
2022-10-03T20:30:55.510Z,7.86
2022-10-03T20:33:27.902Z,7.84
2022-10-03T20:36:16.028Z,7.84
2022-10-03T20:38:50.133Z,7.83
2022-10-03T20:41:24.441Z,7.81
2022-10-03T20:44:06.958Z,7.80
2022-10-03T20:46:45.496Z,7.79
2022-10-03T20:49:28.190Z,7.79
2022-10-03T20:52:06.089Z,7.80
2022-10-03T20:54:47.832Z,7.81
2022-10-03T20:57:20.837Z,7.84
2022-10-03T20:59:56.087Z,7.85
2022-10-03T21:02:40.845Z,7.88
2022-10-03T21:05:23.162Z,7.89
2022-10-03T21:08:00.559Z,7.90
2022-10-03T21:10:37.703Z,7.94
2022-10-03T21:13:22.686Z,7.98
2022-10-03T21:15:57.972Z,8.02
2022-10-03T21:18:27.628Z,8.08
2022-10-03T21:21:08.328Z,8.13
2022-10-03T21:24:26.786Z,8.20
2022-10-03T21:27:01.684Z,8.27
2022-10-03T21:29:33.535Z,8.33
2022-10-03T21:32:11.987Z,8.36
2022-10-03T21:34:52.052Z,8.38
2022-10-03T21:37:41.612Z,8.39
2022-10-03T21:40:37.887Z,8.38
2022-10-03T21:43:14.869Z,8.34
2022-10-03T21:45:58.751Z,8.28
2022-10-03T21:48:48.525Z,8.21
2022-10-03T21:51:25.515Z,8.14
2022-10-03T21:54:41.351Z,8.07
2022-10-03T21:57:36.435Z,7.99
2022-10-03T22:00:26.333Z,7.94
2022-10-03T22:03:07.381Z,7.89
2022-10-03T22:05:54.676Z,7.86
2022-10-03T22:08:41.344Z,7.85
2022-10-03T22:11:36.621Z,7.84
2022-10-03T22:14:32.306Z,7.83
2022-10-03T22:17:20.242Z,7.82
2022-10-03T22:20:13.265Z,7.82
2022-10-03T22:23:18.504Z,7.82
2022-10-03T22:26:24.071Z,7.83
2022-10-03T22:29:00.598Z,7.83
2022-10-03T22:31:49.294Z,7.84
2022-10-03T22:34:39.577Z,7.84
2022-10-03T22:37:08.102Z,7.84
2022-10-03T22:39:37.077Z,7.87
2022-10-03T22:42:07.296Z,7.86
2022-10-03T22:44:38.499Z,7.84
2022-10-03T22:47:31.795Z,7.82
2022-10-03T22:50:08.689Z,7.83
2022-10-03T22:52:40.641Z,7.83
2022-10-03T22:55:13.337Z,7.83
2022-10-03T22:57:44.413Z,7.84
2022-10-03T23:00:20.595Z,7.86
2022-10-03T23:03:13.091Z,7.89
2022-10-03T23:06:17.752Z,7.92
2022-10-03T23:09:02.125Z,7.95
2022-10-03T23:11:33.857Z,7.98
2022-10-03T23:14:27.370Z,7.98
2022-10-03T23:17:40.089Z,7.98
2022-10-03T23:20:41.145Z,7.96
2022-10-03T23:23:17.971Z,7.94
2022-10-03T23:26:02.595Z,7.92
2022-10-03T23:28:44.185Z,7.91
2022-10-03T23:31:51.169Z,7.90
2022-10-03T23:34:44.241Z,7.89
2022-10-03T23:37:14.872Z,7.87
2022-10-03T23:39:45.012Z,7.86
2022-10-03T23:42:15.936Z,7.87
2022-10-03T23:44:52.805Z,7.87
2022-10-03T23:47:27.249Z,7.86
2022-10-03T23:49:56.760Z,7.84
2022-10-03T23:52:30.280Z,7.82
2022-10-03T23:55:04.345Z,7.78
2022-10-03T23:57:42.163Z,7.75
